sensor_id;sensor_type;location;lat;lon;timestamp;temperature;humidity
4635;DHT22;2330;48.158;11.816;2023-08-30T00:01:12;12.80;98.50
4635;DHT22;2330;48.158;11.816;2023-08-30T00:03:39;12.80;98.50
4635;DHT22;2330;48.158;11.816;2023-08-30T00:06:06;12.80;98.50
4635;DHT22;2330;48.158;11.816;2023-08-30T00:08:34;12.80;98.50
4635;DHT22;2330;48.158;11.816;2023-08-30T00:11:01;12.80;98.50
4635;DHT22;2330;48.158;11.816;2023-08-30T00:13:32;12.80;98.50
4635;DHT22;2330;48.158;11.816;2023-08-30T00:16:00;12.80;98.50
4635;DHT22;2330;48.158;11.816;2023-08-30T00:18:29;12.80;98.50
4635;DHT22;2330;48.158;11.816;2023-08-30T00:20:57;12.80;98.50
4635;DHT22;2330;48.158;11.816;2023-08-30T00:23:24;12.90;98.50
4635;DHT22;2330;48.158;11.816;2023-08-30T00:25:51;12.80;98.50
4635;DHT22;2330;48.158;11.816;2023-08-30T00:28:18;12.80;98.50
4635;DHT22;2330;48.158;11.816;2023-08-30T00:30:45;12.80;98.50
4635;DHT22;2330;48.158;11.816;2023-08-30T00:33:12;12.80;98.50
4635;DHT22;2330;48.158;11.816;2023-08-30T00:35:38;12.80;98.50
4635;DHT22;2330;48.158;11.816;2023-08-30T00:38:05;12.80;98.50
4635;DHT22;2330;48.158;11.816;2023-08-30T00:40:39;12.80;98.50
4635;DHT22;2330;48.158;11.816;2023-08-30T00:43:07;12.90;98.50
4635;DHT22;2330;48.158;11.816;2023-08-30T00:45:35;12.90;98.50
4635;DHT22;2330;48.158;11.816;2023-08-30T00:48:04;12.90;98.50
4635;DHT22;2330;48.158;11.816;2023-08-30T00:50:31;12.80;98.50
4635;DHT22;2330;48.158;11.816;2023-08-30T00:52:58;12.80;98.50
4635;DHT22;2330;48.158;11.816;2023-08-30T00:55:25;12.80;98.50
4635;DHT22;2330;48.158;11.816;2023-08-30T00:57:52;12.80;98.50
4635;DHT22;2330;48.158;11.816;2023-08-30T01:00:19;12.80;98.50
4635;DHT22;2330;48.158;11.816;2023-08-30T01:02:46;12.80;98.50
4635;DHT22;2330;48.158;11.816;2023-08-30T01:05:13;12.70;98.50
4635;DHT22;2330;48.158;11.816;2023-08-30T01:07:41;12.70;98.50
4635;DHT22;2330;48.158;11.816;2023-08-30T01:10:08;12.70;98.50
4635;DHT22;2330;48.158;11.816;2023-08-30T01:12:42;12.70;98.50
4635;DHT22;2330;48.158;11.816;2023-08-30T01:15:20;12.70;98.50
4635;DHT22;2330;48.158;11.816;2023-08-30T01:17:48;12.70;98.50
4635;DHT22;2330;48.158;11.816;2023-08-30T01:20:16;12.70;98.50
4635;DHT22;2330;48.158;11.816;2023-08-30T01:25:55;12.80;98.50
4635;DHT22;2330;48.158;11.816;2023-08-30T01:28:24;12.70;98.50
4635;DHT22;2330;48.158;11.816;2023-08-30T01:30:53;12.70;98.50
4635;DHT22;2330;48.158;11.816;2023-08-30T01:33:22;12.80;98.50
4635;DHT22;2330;48.158;11.816;2023-08-30T01:35:49;12.70;98.50
4635;DHT22;2330;48.158;11.816;2023-08-30T01:38:16;12.70;98.50
4635;DHT22;2330;48.158;11.816;2023-08-30T01:40:44;12.70;98.50
4635;DHT22;2330;48.158;11.816;2023-08-30T01:43:13;12.70;98.50
4635;DHT22;2330;48.158;11.816;2023-08-30T01:45:43;12.70;98.50
4635;DHT22;2330;48.158;11.816;2023-08-30T01:48:15;12.70;98.50
4635;DHT22;2330;48.158;11.816;2023-08-30T01:50:44;12.70;98.50
4635;DHT22;2330;48.158;11.816;2023-08-30T01:53:12;12.80;98.50
4635;DHT22;2330;48.158;11.816;2023-08-30T01:55:39;12.80;98.50
4635;DHT22;2330;48.158;11.816;2023-08-30T01:58:07;12.80;98.50
4635;DHT22;2330;48.158;11.816;2023-08-30T02:00:36;12.80;98.50
4635;DHT22;2330;48.158;11.816;2023-08-30T02:03:13;12.80;98.50
4635;DHT22;2330;48.158;11.816;2023-08-30T02:05:50;12.80;98.50
4635;DHT22;2330;48.158;11.816;2023-08-30T02:08:20;12.80;98.50
4635;DHT22;2330;48.158;11.816;2023-08-30T02:10:53;12.80;98.50
4635;DHT22;2330;48.158;11.816;2023-08-30T02:13:25;12.80;98.50
4635;DHT22;2330;48.158;11.816;2023-08-30T02:15:56;12.80;98.50
4635;DHT22;2330;48.158;11.816;2023-08-30T02:18:26;12.80;98.50
4635;DHT22;2330;48.158;11.816;2023-08-30T02:20:53;12.80;98.50
4635;DHT22;2330;48.158;11.816;2023-08-30T02:23:25;12.70;98.50
4635;DHT22;2330;48.158;11.816;2023-08-30T02:25:54;12.70;98.50
4635;DHT22;2330;48.158;11.816;2023-08-30T02:28:22;12.80;98.50
4635;DHT22;2330;48.158;11.816;2023-08-30T02:30:52;12.80;98.50
4635;DHT22;2330;48.158;11.816;2023-08-30T02:33:19;12.80;98.50
4635;DHT22;2330;48.158;11.816;2023-08-30T02:35:45;12.80;98.50
4635;DHT22;2330;48.158;11.816;2023-08-30T02:38:12;12.70;98.50
4635;DHT22;2330;48.158;11.816;2023-08-30T02:40:39;12.70;98.50
4635;DHT22;2330;48.158;11.816;2023-08-30T02:43:06;12.70;98.50
4635;DHT22;2330;48.158;11.816;2023-08-30T02:45:32;12.70;98.50
4635;DHT22;2330;48.158;11.816;2023-08-30T02:47:59;12.70;98.50
4635;DHT22;2330;48.158;11.816;2023-08-30T02:50:26;12.70;98.50
4635;DHT22;2330;48.158;11.816;2023-08-30T02:52:53;12.70;98.50
4635;DHT22;2330;48.158;11.816;2023-08-30T02:55:20;12.70;98.50
4635;DHT22;2330;48.158;11.816;2023-08-30T02:57:46;12.70;98.50
4635;DHT22;2330;48.158;11.816;2023-08-30T03:00:14;12.70;98.50
4635;DHT22;2330;48.158;11.816;2023-08-30T03:02:41;12.70;98.50
4635;DHT22;2330;48.158;11.816;2023-08-30T03:05:08;12.70;98.50
4635;DHT22;2330;48.158;11.816;2023-08-30T03:07:35;12.70;98.50
4635;DHT22;2330;48.158;11.816;2023-08-30T03:10:02;12.70;98.50
4635;DHT22;2330;48.158;11.816;2023-08-30T03:12:30;12.70;98.50
4635;DHT22;2330;48.158;11.816;2023-08-30T03:14:56;12.80;98.50
4635;DHT22;2330;48.158;11.816;2023-08-30T03:17:23;12.80;98.50
4635;DHT22;2330;48.158;11.816;2023-08-30T03:19:52;12.70;98.50
4635;DHT22;2330;48.158;11.816;2023-08-30T03:22:19;12.70;98.50
4635;DHT22;2330;48.158;11.816;2023-08-30T03:24:46;12.70;98.50
4635;DHT22;2330;48.158;11.816;2023-08-30T03:27:13;12.80;98.50
4635;DHT22;2330;48.158;11.816;2023-08-30T03:29:40;12.70;98.50
4635;DHT22;2330;48.158;11.816;2023-08-30T03:32:07;12.80;98.50
4635;DHT22;2330;48.158;11.816;2023-08-30T03:34:33;12.80;98.50
4635;DHT22;2330;48.158;11.816;2023-08-30T03:37:00;12.80;98.50
4635;DHT22;2330;48.158;11.816;2023-08-30T03:39:27;12.70;98.50
4635;DHT22;2330;48.158;11.816;2023-08-30T03:41:54;12.80;98.50
4635;DHT22;2330;48.158;11.816;2023-08-30T03:44:20;12.70;98.50
4635;DHT22;2330;48.158;11.816;2023-08-30T03:46:47;12.80;98.50
4635;DHT22;2330;48.158;11.816;2023-08-30T03:49:14;12.70;98.50
4635;DHT22;2330;48.158;11.816;2023-08-30T03:51:41;12.70;98.50
4635;DHT22;2330;48.158;11.816;2023-08-30T03:54:08;12.70;98.50
4635;DHT22;2330;48.158;11.816;2023-08-30T03:56:40;12.80;98.50
4635;DHT22;2330;48.158;11.816;2023-08-30T03:59:06;12.80;98.50
4635;DHT22;2330;48.158;11.816;2023-08-30T04:01:34;12.80;98.50
4635;DHT22;2330;48.158;11.816;2023-08-30T04:04:01;12.80;98.50
4635;DHT22;2330;48.158;11.816;2023-08-30T04:06:28;12.70;98.50
4635;DHT22;2330;48.158;11.816;2023-08-30T04:08:54;12.70;98.50
4635;DHT22;2330;48.158;11.816;2023-08-30T04:11:21;12.70;98.50
4635;DHT22;2330;48.158;11.816;2023-08-30T04:13:48;12.70;98.50
4635;DHT22;2330;48.158;11.816;2023-08-30T04:16:15;12.70;98.50
4635;DHT22;2330;48.158;11.816;2023-08-30T04:18:42;12.70;98.50
4635;DHT22;2330;48.158;11.816;2023-08-30T04:21:08;12.80;98.50
4635;DHT22;2330;48.158;11.816;2023-08-30T04:23:35;12.80;98.50
4635;DHT22;2330;48.158;11.816;2023-08-30T04:26:02;12.80;98.50
4635;DHT22;2330;48.158;11.816;2023-08-30T04:28:29;12.70;98.50
4635;DHT22;2330;48.158;11.816;2023-08-30T04:30:56;12.70;98.50
4635;DHT22;2330;48.158;11.816;2023-08-30T04:33:23;12.70;98.50
4635;DHT22;2330;48.158;11.816;2023-08-30T04:35:51;12.70;98.50
4635;DHT22;2330;48.158;11.816;2023-08-30T04:38:19;12.70;98.50
4635;DHT22;2330;48.158;11.816;2023-08-30T04:40:47;12.70;98.50
4635;DHT22;2330;48.158;11.816;2023-08-30T04:43:14;12.70;98.50
4635;DHT22;2330;48.158;11.816;2023-08-30T04:45:41;12.70;98.50
4635;DHT22;2330;48.158;11.816;2023-08-30T04:48:08;12.70;98.50
4635;DHT22;2330;48.158;11.816;2023-08-30T04:50:35;12.70;98.50
4635;DHT22;2330;48.158;11.816;2023-08-30T04:53:02;12.70;98.50
4635;DHT22;2330;48.158;11.816;2023-08-30T04:55:29;12.70;98.50
4635;DHT22;2330;48.158;11.816;2023-08-30T04:57:56;12.70;98.50
4635;DHT22;2330;48.158;11.816;2023-08-30T05:00:23;12.70;98.50
4635;DHT22;2330;48.158;11.816;2023-08-30T05:02:50;12.70;98.50
4635;DHT22;2330;48.158;11.816;2023-08-30T05:05:17;12.70;98.50
4635;DHT22;2330;48.158;11.816;2023-08-30T05:07:44;12.70;98.50
4635;DHT22;2330;48.158;11.816;2023-08-30T05:10:11;12.70;98.50
4635;DHT22;2330;48.158;11.816;2023-08-30T05:12:39;12.70;98.50
4635;DHT22;2330;48.158;11.816;2023-08-30T05:15:06;12.70;98.50
4635;DHT22;2330;48.158;11.816;2023-08-30T05:17:33;12.80;98.50
4635;DHT22;2330;48.158;11.816;2023-08-30T05:20:00;12.80;98.50
4635;DHT22;2330;48.158;11.816;2023-08-30T05:22:26;12.80;98.50
4635;DHT22;2330;48.158;11.816;2023-08-30T05:24:53;12.80;98.50
4635;DHT22;2330;48.158;11.816;2023-08-30T05:27:20;12.80;98.50
4635;DHT22;2330;48.158;11.816;2023-08-30T05:29:47;12.80;98.50
4635;DHT22;2330;48.158;11.816;2023-08-30T05:32:13;12.80;98.50
4635;DHT22;2330;48.158;11.816;2023-08-30T05:34:40;12.90;98.50
4635;DHT22;2330;48.158;11.816;2023-08-30T05:37:07;12.90;98.50
4635;DHT22;2330;48.158;11.816;2023-08-30T05:39:34;12.90;98.50
4635;DHT22;2330;48.158;11.816;2023-08-30T05:42:01;12.90;98.50
4635;DHT22;2330;48.158;11.816;2023-08-30T05:44:28;12.90;98.50
4635;DHT22;2330;48.158;11.816;2023-08-30T05:46:55;12.90;98.50
4635;DHT22;2330;48.158;11.816;2023-08-30T05:49:21;13.00;98.50
4635;DHT22;2330;48.158;11.816;2023-08-30T05:51:48;13.00;98.50
4635;DHT22;2330;48.158;11.816;2023-08-30T05:54:15;13.00;98.50
4635;DHT22;2330;48.158;11.816;2023-08-30T05:56:42;13.10;98.50
4635;DHT22;2330;48.158;11.816;2023-08-30T05:59:08;13.00;98.50
4635;DHT22;2330;48.158;11.816;2023-08-30T06:01:35;13.00;98.50
4635;DHT22;2330;48.158;11.816;2023-08-30T06:04:02;13.10;98.50
4635;DHT22;2330;48.158;11.816;2023-08-30T06:06:31;13.10;98.50
4635;DHT22;2330;48.158;11.816;2023-08-30T06:08:58;13.10;98.50
4635;DHT22;2330;48.158;11.816;2023-08-30T06:11:25;13.20;98.50
4635;DHT22;2330;48.158;11.816;2023-08-30T06:13:52;13.20;98.50
4635;DHT22;2330;48.158;11.816;2023-08-30T06:16:18;13.20;98.50
4635;DHT22;2330;48.158;11.816;2023-08-30T06:18:45;13.20;98.50
4635;DHT22;2330;48.158;11.816;2023-08-30T06:21:12;13.20;98.50
4635;DHT22;2330;48.158;11.816;2023-08-30T06:23:38;13.20;98.50
4635;DHT22;2330;48.158;11.816;2023-08-30T06:26:05;13.20;98.50
4635;DHT22;2330;48.158;11.816;2023-08-30T06:28:32;13.20;98.50
4635;DHT22;2330;48.158;11.816;2023-08-30T06:30:59;13.30;98.50
4635;DHT22;2330;48.158;11.816;2023-08-30T06:33:26;13.40;98.50
4635;DHT22;2330;48.158;11.816;2023-08-30T06:35:53;13.50;98.50
4635;DHT22;2330;48.158;11.816;2023-08-30T06:38:21;13.40;98.50
4635;DHT22;2330;48.158;11.816;2023-08-30T06:40:48;13.50;98.50
4635;DHT22;2330;48.158;11.816;2023-08-30T06:43:15;13.60;98.50
4635;DHT22;2330;48.158;11.816;2023-08-30T06:45:42;13.50;98.50
4635;DHT22;2330;48.158;11.816;2023-08-30T06:48:10;13.50;98.50
4635;DHT22;2330;48.158;11.816;2023-08-30T06:50:38;13.50;98.50
4635;DHT22;2330;48.158;11.816;2023-08-30T06:53:04;13.60;98.50
4635;DHT22;2330;48.158;11.816;2023-08-30T06:55:32;13.60;98.50
4635;DHT22;2330;48.158;11.816;2023-08-30T06:58:00;13.70;98.50
4635;DHT22;2330;48.158;11.816;2023-08-30T07:00:26;13.70;98.50
4635;DHT22;2330;48.158;11.816;2023-08-30T07:02:53;13.70;98.50
4635;DHT22;2330;48.158;11.816;2023-08-30T07:05:21;13.80;98.50
4635;DHT22;2330;48.158;11.816;2023-08-30T07:07:48;13.80;98.50
4635;DHT22;2330;48.158;11.816;2023-08-30T07:10:15;13.90;98.50
4635;DHT22;2330;48.158;11.816;2023-08-30T07:12:42;14.00;98.50
4635;DHT22;2330;48.158;11.816;2023-08-30T07:15:09;14.10;98.50
4635;DHT22;2330;48.158;11.816;2023-08-30T07:17:35;14.00;98.50
4635;DHT22;2330;48.158;11.816;2023-08-30T07:20:18;14.10;98.50
4635;DHT22;2330;48.158;11.816;2023-08-30T07:22:46;14.20;98.50
4635;DHT22;2330;48.158;11.816;2023-08-30T07:25:13;14.30;98.50
4635;DHT22;2330;48.158;11.816;2023-08-30T07:27:41;14.30;98.50
4635;DHT22;2330;48.158;11.816;2023-08-30T07:30:08;14.40;98.50
4635;DHT22;2330;48.158;11.816;2023-08-30T07:32:35;14.40;98.50
4635;DHT22;2330;48.158;11.816;2023-08-30T07:35:05;14.40;98.50
4635;DHT22;2330;48.158;11.816;2023-08-30T07:37:32;14.20;98.50
4635;DHT22;2330;48.158;11.816;2023-08-30T07:39:59;14.20;98.50
4635;DHT22;2330;48.158;11.816;2023-08-30T07:42:27;14.20;98.50
4635;DHT22;2330;48.158;11.816;2023-08-30T07:44:53;14.10;98.50
4635;DHT22;2330;48.158;11.816;2023-08-30T07:47:22;14.10;98.50
4635;DHT22;2330;48.158;11.816;2023-08-30T07:49:49;14.20;98.50
4635;DHT22;2330;48.158;11.816;2023-08-30T07:52:15;14.20;98.50
4635;DHT22;2330;48.158;11.816;2023-08-30T07:54:46;14.20;98.50
4635;DHT22;2330;48.158;11.816;2023-08-30T07:57:17;14.20;98.50
4635;DHT22;2330;48.158;11.816;2023-08-30T07:59:45;14.30;98.50
4635;DHT22;2330;48.158;11.816;2023-08-30T08:02:12;14.20;98.50
4635;DHT22;2330;48.158;11.816;2023-08-30T08:04:39;14.00;98.50
4635;DHT22;2330;48.158;11.816;2023-08-30T08:07:06;14.10;98.50
4635;DHT22;2330;48.158;11.816;2023-08-30T08:09:33;14.00;98.50
4635;DHT22;2330;48.158;11.816;2023-08-30T08:12:00;14.10;98.50
4635;DHT22;2330;48.158;11.816;2023-08-30T08:14:27;14.30;98.50
4635;DHT22;2330;48.158;11.816;2023-08-30T08:16:54;14.40;98.50
4635;DHT22;2330;48.158;11.816;2023-08-30T08:19:20;14.50;98.50
4635;DHT22;2330;48.158;11.816;2023-08-30T08:21:52;14.70;98.50
4635;DHT22;2330;48.158;11.816;2023-08-30T08:24:22;14.70;98.50
4635;DHT22;2330;48.158;11.816;2023-08-30T08:26:48;14.70;98.50
4635;DHT22;2330;48.158;11.816;2023-08-30T08:29:15;14.80;98.50
4635;DHT22;2330;48.158;11.816;2023-08-30T08:31:42;14.80;98.50
4635;DHT22;2330;48.158;11.816;2023-08-30T08:34:11;14.70;98.50
4635;DHT22;2330;48.158;11.816;2023-08-30T08:36:40;14.70;98.50
4635;DHT22;2330;48.158;11.816;2023-08-30T08:39:07;14.80;98.50
4635;DHT22;2330;48.158;11.816;2023-08-30T08:41:44;14.70;98.50
4635;DHT22;2330;48.158;11.816;2023-08-30T08:44:12;14.70;98.50
4635;DHT22;2330;48.158;11.816;2023-08-30T08:46:40;14.70;98.50
4635;DHT22;2330;48.158;11.816;2023-08-30T08:49:12;14.80;98.50
4635;DHT22;2330;48.158;11.816;2023-08-30T08:51:41;14.90;98.50
4635;DHT22;2330;48.158;11.816;2023-08-30T08:54:10;14.90;98.50
4635;DHT22;2330;48.158;11.816;2023-08-30T08:56:38;14.90;98.50
4635;DHT22;2330;48.158;11.816;2023-08-30T08:59:06;14.90;98.50
4635;DHT22;2330;48.158;11.816;2023-08-30T09:01:35;14.90;98.50
4635;DHT22;2330;48.158;11.816;2023-08-30T09:04:06;14.80;98.50
4635;DHT22;2330;48.158;11.816;2023-08-30T09:06:34;14.80;98.50
4635;DHT22;2330;48.158;11.816;2023-08-30T09:09:03;14.80;98.50
4635;DHT22;2330;48.158;11.816;2023-08-30T09:11:31;14.90;98.50
4635;DHT22;2330;48.158;11.816;2023-08-30T09:14:16;14.90;98.50
4635;DHT22;2330;48.158;11.816;2023-08-30T09:16:53;15.00;98.50
4635;DHT22;2330;48.158;11.816;2023-08-30T09:19:20;15.10;98.50
4635;DHT22;2330;48.158;11.816;2023-08-30T09:21:57;15.30;98.50
4635;DHT22;2330;48.158;11.816;2023-08-30T09:24:25;15.40;98.50
4635;DHT22;2330;48.158;11.816;2023-08-30T09:26:53;15.80;98.50
4635;DHT22;2330;48.158;11.816;2023-08-30T09:29:21;16.30;98.50
4635;DHT22;2330;48.158;11.816;2023-08-30T09:31:51;16.90;98.50
4635;DHT22;2330;48.158;11.816;2023-08-30T09:34:27;17.30;98.50
4635;DHT22;2330;48.158;11.816;2023-08-30T09:36:54;17.30;98.50
4635;DHT22;2330;48.158;11.816;2023-08-30T09:39:22;17.30;98.50
4635;DHT22;2330;48.158;11.816;2023-08-30T09:41:49;17.10;98.50
4635;DHT22;2330;48.158;11.816;2023-08-30T09:44:18;17.20;98.50
4635;DHT22;2330;48.158;11.816;2023-08-30T09:46:48;17.10;98.50
4635;DHT22;2330;48.158;11.816;2023-08-30T09:49:24;17.40;98.50
4635;DHT22;2330;48.158;11.816;2023-08-30T09:51:53;17.40;98.50
4635;DHT22;2330;48.158;11.816;2023-08-30T09:54:27;17.90;98.50
4635;DHT22;2330;48.158;11.816;2023-08-30T09:57:05;18.10;98.50
4635;DHT22;2330;48.158;11.816;2023-08-30T09:59:33;18.00;98.50
4635;DHT22;2330;48.158;11.816;2023-08-30T10:02:00;18.10;98.50
4635;DHT22;2330;48.158;11.816;2023-08-30T10:04:27;18.10;98.50
4635;DHT22;2330;48.158;11.816;2023-08-30T10:06:56;18.00;98.50
4635;DHT22;2330;48.158;11.816;2023-08-30T10:09:24;18.00;98.50
4635;DHT22;2330;48.158;11.816;2023-08-30T10:11:51;17.80;98.50
4635;DHT22;2330;48.158;11.816;2023-08-30T10:14:18;17.50;98.50
4635;DHT22;2330;48.158;11.816;2023-08-30T10:16:46;17.30;98.50
4635;DHT22;2330;48.158;11.816;2023-08-30T10:19:19;17.20;98.50
4635;DHT22;2330;48.158;11.816;2023-08-30T10:22:06;17.10;98.50
4635;DHT22;2330;48.158;11.816;2023-08-30T10:24:46;17.10;98.50
4635;DHT22;2330;48.158;11.816;2023-08-30T10:27:34;17.10;98.50
4635;DHT22;2330;48.158;11.816;2023-08-30T10:30:04;17.10;98.50
4635;DHT22;2330;48.158;11.816;2023-08-30T10:32:39;17.20;98.50
4635;DHT22;2330;48.158;11.816;2023-08-30T10:35:06;17.20;98.50
4635;DHT22;2330;48.158;11.816;2023-08-30T10:37:33;17.20;98.50
4635;DHT22;2330;48.158;11.816;2023-08-30T10:40:03;17.30;98.50
4635;DHT22;2330;48.158;11.816;2023-08-30T10:42:30;17.30;98.50
4635;DHT22;2330;48.158;11.816;2023-08-30T10:44:59;17.40;98.50
4635;DHT22;2330;48.158;11.816;2023-08-30T10:47:30;17.50;98.50
4635;DHT22;2330;48.158;11.816;2023-08-30T10:49:58;17.70;98.50
4635;DHT22;2330;48.158;11.816;2023-08-30T10:52:27;17.90;98.50
4635;DHT22;2330;48.158;11.816;2023-08-30T10:55:14;18.00;98.50
4635;DHT22;2330;48.158;11.816;2023-08-30T10:57:43;18.20;98.50
4635;DHT22;2330;48.158;11.816;2023-08-30T11:02:47;18.80;98.50
4635;DHT22;2330;48.158;11.816;2023-08-30T11:05:22;19.10;98.50
4635;DHT22;2330;48.158;11.816;2023-08-30T11:07:51;19.40;98.50
4635;DHT22;2330;48.158;11.816;2023-08-30T11:10:19;19.80;98.40
4635;DHT22;2330;48.158;11.816;2023-08-30T11:12:46;20.00;97.40
4635;DHT22;2330;48.158;11.816;2023-08-30T11:15:15;19.90;98.30
4635;DHT22;2330;48.158;11.816;2023-08-30T11:17:43;20.10;98.50
4635;DHT22;2330;48.158;11.816;2023-08-30T11:20:12;20.20;97.50
4635;DHT22;2330;48.158;11.816;2023-08-30T11:22:44;20.10;96.90
4635;DHT22;2330;48.158;11.816;2023-08-30T11:25:12;20.00;96.80
4635;DHT22;2330;48.158;11.816;2023-08-30T11:27:40;19.60;97.80
4635;DHT22;2330;48.158;11.816;2023-08-30T11:30:08;19.20;98.50
4635;DHT22;2330;48.158;11.816;2023-08-30T11:32:43;19.10;98.50
4635;DHT22;2330;48.158;11.816;2023-08-30T11:35:10;19.20;98.50
4635;DHT22;2330;48.158;11.816;2023-08-30T11:37:37;19.20;98.40
4635;DHT22;2330;48.158;11.816;2023-08-30T11:40:05;19.30;98.50
4635;DHT22;2330;48.158;11.816;2023-08-30T11:42:33;19.50;98.50
4635;DHT22;2330;48.158;11.816;2023-08-30T11:45:01;19.80;98.50
4635;DHT22;2330;48.158;11.816;2023-08-30T11:47:28;19.80;98.50
4635;DHT22;2330;48.158;11.816;2023-08-30T11:49:57;19.60;98.50
4635;DHT22;2330;48.158;11.816;2023-08-30T11:52:25;19.40;98.50
4635;DHT22;2330;48.158;11.816;2023-08-30T11:54:53;19.20;98.50
4635;DHT22;2330;48.158;11.816;2023-08-30T11:57:20;19.00;98.50
4635;DHT22;2330;48.158;11.816;2023-08-30T11:59:48;18.70;98.50
4635;DHT22;2330;48.158;11.816;2023-08-30T12:02:16;18.60;98.50
4635;DHT22;2330;48.158;11.816;2023-08-30T12:04:45;18.30;98.50
4635;DHT22;2330;48.158;11.816;2023-08-30T12:07:22;18.20;98.50
4635;DHT22;2330;48.158;11.816;2023-08-30T12:09:50;17.90;98.50
4635;DHT22;2330;48.158;11.816;2023-08-30T12:12:18;17.80;98.50
4635;DHT22;2330;48.158;11.816;2023-08-30T12:14:45;17.80;98.50
4635;DHT22;2330;48.158;11.816;2023-08-30T12:17:11;17.70;98.50
4635;DHT22;2330;48.158;11.816;2023-08-30T12:19:39;17.70;98.50
4635;DHT22;2330;48.158;11.816;2023-08-30T12:22:09;17.80;98.50
4635;DHT22;2330;48.158;11.816;2023-08-30T12:24:46;17.90;98.50
4635;DHT22;2330;48.158;11.816;2023-08-30T12:27:14;18.10;98.50
4635;DHT22;2330;48.158;11.816;2023-08-30T12:29:41;18.40;98.50
4635;DHT22;2330;48.158;11.816;2023-08-30T12:32:08;18.60;98.50
4635;DHT22;2330;48.158;11.816;2023-08-30T12:34:35;18.80;98.50
4635;DHT22;2330;48.158;11.816;2023-08-30T12:37:03;18.90;98.50
4635;DHT22;2330;48.158;11.816;2023-08-30T12:39:31;18.90;98.50
4635;DHT22;2330;48.158;11.816;2023-08-30T12:41:58;18.80;98.50
4635;DHT22;2330;48.158;11.816;2023-08-30T12:44:25;18.60;98.50
4635;DHT22;2330;48.158;11.816;2023-08-30T12:46:52;19.00;98.50
4635;DHT22;2330;48.158;11.816;2023-08-30T12:49:19;19.20;98.50
4635;DHT22;2330;48.158;11.816;2023-08-30T12:51:46;19.40;98.50
4635;DHT22;2330;48.158;11.816;2023-08-30T12:54:12;19.20;98.50
4635;DHT22;2330;48.158;11.816;2023-08-30T12:56:39;18.80;98.50
4635;DHT22;2330;48.158;11.816;2023-08-30T12:59:06;18.70;98.50
4635;DHT22;2330;48.158;11.816;2023-08-30T13:01:33;18.80;98.50
4635;DHT22;2330;48.158;11.816;2023-08-30T13:04:00;18.80;98.50
4635;DHT22;2330;48.158;11.816;2023-08-30T13:06:27;18.80;98.50
4635;DHT22;2330;48.158;11.816;2023-08-30T13:08:53;18.60;98.50
4635;DHT22;2330;48.158;11.816;2023-08-30T13:11:20;18.50;98.50
4635;DHT22;2330;48.158;11.816;2023-08-30T13:13:47;18.30;98.50
4635;DHT22;2330;48.158;11.816;2023-08-30T13:16:14;18.20;98.50
4635;DHT22;2330;48.158;11.816;2023-08-30T13:18:41;18.20;98.50
4635;DHT22;2330;48.158;11.816;2023-08-30T13:21:08;18.10;98.50
4635;DHT22;2330;48.158;11.816;2023-08-30T13:23:35;18.00;98.50
4635;DHT22;2330;48.158;11.816;2023-08-30T13:26:02;17.80;98.50
4635;DHT22;2330;48.158;11.816;2023-08-30T13:28:29;17.60;98.50
4635;DHT22;2330;48.158;11.816;2023-08-30T13:30:56;17.50;98.50
4635;DHT22;2330;48.158;11.816;2023-08-30T13:33:23;17.40;98.50
4635;DHT22;2330;48.158;11.816;2023-08-30T13:35:50;17.10;98.50
4635;DHT22;2330;48.158;11.816;2023-08-30T13:38:18;17.00;98.50
4635;DHT22;2330;48.158;11.816;2023-08-30T13:40:45;16.80;98.50
4635;DHT22;2330;48.158;11.816;2023-08-30T13:43:12;16.80;98.50
4635;DHT22;2330;48.158;11.816;2023-08-30T13:45:39;16.70;98.50
4635;DHT22;2330;48.158;11.816;2023-08-30T13:48:06;16.60;98.50
4635;DHT22;2330;48.158;11.816;2023-08-30T13:50:33;16.60;98.50
4635;DHT22;2330;48.158;11.816;2023-08-30T13:53:00;16.60;98.50
4635;DHT22;2330;48.158;11.816;2023-08-30T13:55:27;16.60;98.50
4635;DHT22;2330;48.158;11.816;2023-08-30T13:57:54;16.70;98.50
4635;DHT22;2330;48.158;11.816;2023-08-30T14:00:21;16.60;98.50
4635;DHT22;2330;48.158;11.816;2023-08-30T14:02:48;16.60;98.50
4635;DHT22;2330;48.158;11.816;2023-08-30T14:05:15;16.60;98.50
4635;DHT22;2330;48.158;11.816;2023-08-30T14:07:42;16.70;98.50
4635;DHT22;2330;48.158;11.816;2023-08-30T14:10:11;16.60;98.50
4635;DHT22;2330;48.158;11.816;2023-08-30T14:12:37;16.60;98.50
4635;DHT22;2330;48.158;11.816;2023-08-30T14:15:05;16.60;98.50
4635;DHT22;2330;48.158;11.816;2023-08-30T14:17:32;16.60;98.50
4635;DHT22;2330;48.158;11.816;2023-08-30T14:19:59;16.50;98.50
4635;DHT22;2330;48.158;11.816;2023-08-30T14:22:26;16.40;98.50
4635;DHT22;2330;48.158;11.816;2023-08-30T14:24:53;16.30;98.50
4635;DHT22;2330;48.158;11.816;2023-08-30T14:27:37;16.20;98.50
4635;DHT22;2330;48.158;11.816;2023-08-30T14:30:05;16.20;98.50
4635;DHT22;2330;48.158;11.816;2023-08-30T14:32:32;16.10;98.50
4635;DHT22;2330;48.158;11.816;2023-08-30T14:34:58;16.10;98.50
4635;DHT22;2330;48.158;11.816;2023-08-30T14:37:25;16.10;98.50
4635;DHT22;2330;48.158;11.816;2023-08-30T14:39:55;16.00;98.50
4635;DHT22;2330;48.158;11.816;2023-08-30T14:42:22;15.90;98.50
4635;DHT22;2330;48.158;11.816;2023-08-30T14:44:49;15.90;98.50
4635;DHT22;2330;48.158;11.816;2023-08-30T14:47:17;15.90;98.50
4635;DHT22;2330;48.158;11.816;2023-08-30T14:49:45;15.90;98.50
4635;DHT22;2330;48.158;11.816;2023-08-30T14:52:13;15.90;98.50
4635;DHT22;2330;48.158;11.816;2023-08-30T14:54:40;15.90;98.50
4635;DHT22;2330;48.158;11.816;2023-08-30T14:57:07;15.80;98.50
4635;DHT22;2330;48.158;11.816;2023-08-30T14:59:34;15.90;98.50
4635;DHT22;2330;48.158;11.816;2023-08-30T15:02:01;15.90;98.50
4635;DHT22;2330;48.158;11.816;2023-08-30T15:04:27;15.80;98.50
4635;DHT22;2330;48.158;11.816;2023-08-30T15:06:54;15.80;98.50
4635;DHT22;2330;48.158;11.816;2023-08-30T15:09:21;15.90;98.50
4635;DHT22;2330;48.158;11.816;2023-08-30T15:11:48;15.90;98.50
4635;DHT22;2330;48.158;11.816;2023-08-30T15:14:15;16.00;98.50
4635;DHT22;2330;48.158;11.816;2023-08-30T15:16:41;16.20;98.50
4635;DHT22;2330;48.158;11.816;2023-08-30T15:19:08;16.30;98.50
4635;DHT22;2330;48.158;11.816;2023-08-30T15:21:35;16.50;98.50
4635;DHT22;2330;48.158;11.816;2023-08-30T15:24:03;16.60;98.50
4635;DHT22;2330;48.158;11.816;2023-08-30T15:26:31;16.70;98.50
4635;DHT22;2330;48.158;11.816;2023-08-30T15:28:58;16.50;98.50
4635;DHT22;2330;48.158;11.816;2023-08-30T15:31:25;16.60;98.50
4635;DHT22;2330;48.158;11.816;2023-08-30T15:33:52;16.60;98.50
4635;DHT22;2330;48.158;11.816;2023-08-30T15:36:19;16.50;98.50
4635;DHT22;2330;48.158;11.816;2023-08-30T15:38:46;16.60;98.50
4635;DHT22;2330;48.158;11.816;2023-08-30T15:41:13;16.80;98.50
4635;DHT22;2330;48.158;11.816;2023-08-30T15:43:41;16.90;98.50
4635;DHT22;2330;48.158;11.816;2023-08-30T15:46:12;17.10;98.50
4635;DHT22;2330;48.158;11.816;2023-08-30T15:48:39;17.30;98.50
4635;DHT22;2330;48.158;11.816;2023-08-30T15:51:06;17.40;98.50
4635;DHT22;2330;48.158;11.816;2023-08-30T15:53:50;17.40;98.50
4635;DHT22;2330;48.158;11.816;2023-08-30T15:56:16;17.70;98.50